Time;durP1;ratioP1;P1;durP2;ratioP2;P2;SDS_P1;SDS_P2;PMS_P1;PMS_P2;Temp;Humidity;BMP_temperature;BMP_pressure;BME280_temperature;BME280_humidity;BME280_pressure;Samples;Min_cycle;Max_cycle;Signal;HPM_P1;HPM_P2
2022/04/01 00:00:39;;;;;;;13.83;12.20;;;7.10;99.90;;;;;;5035346;28;20996;-69
2022/04/01 00:03:09;;;;;;;17.10;13.10;;;7.30;99.90;;;;;;5053282;28;20627;-69
2022/04/01 00:05:35;;;;;;;13.07;11.57;;;7.40;99.90;;;;;;5053460;28;20505;-69
2022/04/01 00:08:01;;;;;;;13.37;11.67;;;7.30;99.90;;;;;;5053272;28;20484;-69
2022/04/01 00:10:27;;;;;;;17.13;13.63;;;7.20;99.90;;;;;;5052843;28;20186;-69
2022/04/01 00:12:53;;;;;;;15.80;12.47;;;7.10;99.90;;;;;;5053180;28;20496;-69
2022/04/01 00:15:18;;;;;;;13.47;11.87;;;7.10;99.90;;;;;;5053215;28;20169;-69
2022/04/01 00:17:44;;;;;;;13.77;12.37;;;7.20;99.90;;;;;;5035565;28;20655;-69
2022/04/01 00:20:13;;;;;;;16.90;13.90;;;7.20;99.90;;;;;;5053351;28;20196;-69
2022/04/01 00:22:40;;;;;;;15.57;13.30;;;7.20;99.90;;;;;;5053659;28;20975;-69
2022/04/01 00:25:06;;;;;;;14.60;12.23;;;7.20;99.90;;;;;;5052064;28;20484;-70
2022/04/01 00:27:32;;;;;;;12.30;11.00;;;7.30;99.90;;;;;;5052487;28;20490;-69
2022/04/01 00:29:57;;;;;;;14.50;11.60;;;7.40;99.90;;;;;;5052933;28;20482;-69
2022/04/01 00:32:23;;;;;;;13.33;11.47;;;7.30;99.90;;;;;;5053109;28;20174;-69
2022/04/01 00:34:49;;;;;;;15.57;12.37;;;7.30;99.90;;;;;;5053299;28;20175;-69
2022/04/01 00:37:15;;;;;;;13.40;12.00;;;7.50;99.90;;;;;;5053261;28;20237;-69
2022/04/01 00:39:41;;;;;;;15.60;13.90;;;7.50;99.90;;;;;;5052812;28;20434;-69
2022/04/01 00:42:07;;;;;;;14.00;12.07;;;7.40;99.90;;;;;;5052592;28;20420;-69
2022/04/01 00:44:35;;;;;;;13.80;12.20;;;7.20;99.90;;;;;;5034986;28;20163;-69
2022/04/01 00:47:10;;;;;;;13.27;11.87;;;6.90;99.90;;;;;;5052774;28;20459;-69
2022/04/01 00:49:36;;;;;;;13.27;11.80;;;6.90;99.90;;;;;;5053016;28;20408;-69
2022/04/01 00:52:04;;;;;;;13.00;11.70;;;6.80;99.90;;;;;;5052891;28;20406;-69
2022/04/01 00:54:30;;;;;;;13.60;11.37;;;6.70;99.90;;;;;;5052922;28;20402;-69
2022/04/01 00:56:56;;;;;;;15.07;13.00;;;6.60;99.90;;;;;;5052344;28;20991;-69
2022/04/01 00:59:24;;;;;;;15.13;13.00;;;6.60;99.90;;;;;;5052619;28;20403;-69
2022/04/01 01:01:50;;;;;;;12.57;11.27;;;6.60;99.90;;;;;;5034637;28;20540;-69
2022/04/01 01:04:17;;;;;;;14.13;11.30;;;6.50;99.90;;;;;;5052709;28;20409;-69
2022/04/01 01:06:49;;;;;;;13.97;12.50;;;6.40;99.90;;;;;;5053001;28;20444;-69
2022/04/01 01:09:15;;;;;;;14.87;13.27;;;6.30;99.90;;;;;;5021691;28;20434;-69
2022/04/01 01:11:42;;;;;;;14.43;12.37;;;6.40;99.90;;;;;;5055967;28;20924;-68
2022/04/01 01:14:09;;;;;;;13.13;11.47;;;6.40;99.90;;;;;;5056830;28;20405;-68
2022/04/01 01:16:40;;;;;;;14.73;10.77;;;6.30;99.90;;;;;;5056699;28;20890;-68
2022/04/01 01:19:07;;;;;;;11.70;10.50;;;6.30;99.90;;;;;;5054895;28;20408;-69
2022/04/01 01:21:33;;;;;;;11.83;10.57;;;6.40;99.90;;;;;;5056434;28;20450;-69
2022/04/01 01:24:07;;;;;;;12.47;10.33;;;6.50;99.90;;;;;;5038465;28;20459;-69
2022/04/01 01:26:34;;;;;;;14.40;11.63;;;6.50;99.90;;;;;;5036732;28;20516;-69
2022/04/01 01:29:00;;;;;;;11.47;10.13;;;6.50;99.90;;;;;;5056510;28;20425;-69
2022/04/01 01:31:26;;;;;;;13.70;11.40;;;6.30;99.90;;;;;;5055984;28;20441;-69
2022/04/01 01:33:54;;;;;;;12.30;10.90;;;6.30;99.90;;;;;;5056156;28;20906;-69
2022/04/01 01:36:21;;;;;;;12.17;10.90;;;6.30;99.90;;;;;;5056863;28;20393;-69
2022/04/01 01:38:47;;;;;;;11.60;10.43;;;6.30;99.90;;;;;;5056256;28;20409;-69
2022/04/01 01:41:14;;;;;;;11.03;9.93;;;6.30;99.90;;;;;;5055395;28;20444;-69
2022/04/01 01:43:41;;;;;;;11.83;10.60;;;6.40;99.90;;;;;;5056157;28;20595;-69
2022/04/01 01:46:07;;;;;;;11.30;10.20;;;6.40;99.90;;;;;;5056028;28;20420;-68
2022/04/01 01:48:32;;;;;;;11.77;10.07;;;6.10;99.90;;;;;;5055757;28;20881;-69
2022/04/01 01:56:26;;;;;;;12.73;11.07;;;6.30;99.90;;;;;;5055393;28;20406;-69
2022/04/01 01:58:53;;;;;;;14.03;12.63;;;6.20;99.90;;;;;;5055655;28;20401;-69
2022/04/01 02:01:19;;;;;;;12.63;11.17;;;6.20;99.90;;;;;;5055674;28;20629;-69
2022/04/01 02:03:45;;;;;;;11.60;10.40;;;6.20;99.90;;;;;;5055935;28;20429;-69
2022/04/01 02:06:10;;;;;;;14.00;11.23;;;6.20;99.90;;;;;;5053925;28;20172;-68
2022/04/01 02:08:36;;;;;;;12.43;11.13;;;6.20;99.90;;;;;;5035053;28;20171;-68
2022/04/01 02:11:02;;;;;;;14.03;12.20;;;6.40;99.90;;;;;;5034405;28;20601;-69
2022/04/01 02:13:28;;;;;;;12.20;11.00;;;6.50;99.90;;;;;;5017596;28;20179;-69
2022/04/01 02:15:54;;;;;;;13.20;11.80;;;6.60;99.90;;;;;;5035493;28;20172;-69
2022/04/01 02:18:23;;;;;;;12.90;11.47;;;6.40;99.90;;;;;;5034347;28;20407;-69
2022/04/01 02:20:50;;;;;;;12.60;11.30;;;6.30;99.90;;;;;;5035309;28;20453;-69
2022/04/01 02:23:16;;;;;;;14.30;12.30;;;6.40;99.90;;;;;;5035286;28;20409;-69
2022/04/01 02:25:42;;;;;;;12.67;11.40;;;6.40;99.90;;;;;;5042208;28;20425;-69
2022/04/01 02:28:09;;;;;;;15.30;12.90;;;6.20;99.90;;;;;;5053392;28;20417;-69
2022/04/01 02:30:35;;;;;;;13.63;12.10;;;6.20;99.90;;;;;;5054915;28;20449;-69
2022/04/01 02:33:02;;;;;;;12.60;11.30;;;6.30;99.90;;;;;;5055074;28;20458;-69
2022/04/01 02:35:28;;;;;;;14.83;12.43;;;6.30;99.90;;;;;;5054921;28;20917;-69
2022/04/01 02:37:54;;;;;;;13.53;11.67;;;6.30;99.90;;;;;;5054902;28;20463;-69
2022/04/01 02:40:20;;;;;;;13.27;11.97;;;6.20;99.90;;;;;;5020682;28;20859;-69
2022/04/01 02:42:47;;;;;;;14.93;12.60;;;6.30;99.90;;;;;;5054470;28;20823;-68
2022/04/01 02:45:13;;;;;;;12.83;11.43;;;6.10;99.90;;;;;;5054894;28;20397;-69
2022/04/01 02:47:39;;;;;;;17.47;14.10;;;6.10;99.90;;;;;;5054641;28;20405;-69
2022/04/01 02:50:07;;;;;;;14.53;12.97;;;6.10;99.90;;;;;;5054620;28;20436;-68
2022/04/01 02:52:33;;;;;;;13.83;12.30;;;6.30;99.90;;;;;;5054890;28;20517;-68
2022/04/01 02:54:58;;;;;;;14.43;12.93;;;6.30;99.90;;;;;;5054539;28;20759;-68
2022/04/01 02:57:24;;;;;;;14.03;11.63;;;6.20;99.90;;;;;;5053798;28;20549;-69
2022/04/01 02:59:49;;;;;;;14.80;13.20;;;6.20;99.90;;;;;;5036378;28;20186;-68
2022/04/01 03:02:15;;;;;;;12.60;11.30;;;6.10;99.90;;;;;;5046022;28;20164;-69
2022/04/01 03:04:42;;;;;;;14.73;12.93;;;6.00;99.90;;;;;;5016787;28;20171;-69
2022/04/01 03:07:07;;;;;;;14.83;13.27;;;6.00;99.90;;;;;;5034616;28;20541;-68
2022/04/01 03:09:33;;;;;;;14.53;12.10;;;6.20;99.90;;;;;;5034613;28;20425;-69
2022/04/01 03:12:00;;;;;;;12.37;11.07;;;6.40;99.90;;;;;;5016398;28;20167;-68
2022/04/01 03:14:26;;;;;;;11.90;10.60;;;6.30;99.90;;;;;;5034220;28;20429;-69
2022/04/01 03:16:52;;;;;;;14.10;12.57;;;6.30;99.90;;;;;;5034832;28;20402;-69
2022/04/01 03:19:18;;;;;;;13.43;12.03;;;6.30;99.90;;;;;;5016630;28;20410;-69
2022/04/01 03:21:45;;;;;;;15.10;13.47;;;6.20;99.90;;;;;;5034151;28;20445;-69
2022/04/01 03:24:11;;;;;;;12.60;11.40;;;6.30;99.90;;;;;;5034507;28;20406;-68
2022/04/01 03:26:38;;;;;;;15.03;13.20;;;6.20;99.90;;;;;;5037118;28;20409;-68
2022/04/01 03:29:04;;;;;;;13.80;11.40;;;6.20;99.90;;;;;;5033983;28;20934;-67
2022/04/01 03:31:30;;;;;;;15.00;13.40;;;6.20;99.90;;;;;;5053347;28;20514;-68
2022/04/01 03:33:56;;;;;;;13.17;11.03;;;6.20;99.90;;;;;;5036180;28;20409;-68
2022/04/01 03:36:21;;;;;;;14.23;12.57;;;6.10;99.90;;;;;;5035869;28;20471;-68
2022/04/01 03:38:47;;;;;;;14.60;13.00;;;6.00;99.90;;;;;;5019521;28;20304;-69
2022/04/01 03:41:13;;;;;;;16.03;13.90;;;6.00;99.90;;;;;;5053971;28;20821;-68
2022/04/01 03:43:40;;;;;;;16.47;13.67;;;6.00;99.90;;;;;;5053347;28;20210;-69
2022/04/01 03:46:15;;;;;;;13.43;12.03;;;5.90;99.90;;;;;;5053913;28;20792;-69
2022/04/01 03:48:44;;;;;;;15.17;13.37;;;5.80;99.90;;;;;;5053743;28;20472;-68
2022/04/01 03:51:15;;;;;;;13.97;12.50;;;5.80;99.90;;;;;;5053779;28;20507;-68
2022/04/01 03:53:55;;;;;;;14.33;12.83;;;5.80;99.90;;;;;;5003438;28;20409;-69
2022/04/01 03:56:33;;;;;;;16.50;13.93;;;5.80;99.90;;;;;;5053412;28;20386;-69
2022/04/01 03:59:09;;;;;;;15.40;13.80;;;5.80;99.90;;;;;;5035032;28;20421;-69
2022/04/01 04:01:36;;;;;;;16.80;13.73;;;5.90;99.90;;;;;;5054106;28;20824;-69
2022/04/01 04:04:03;;;;;;;15.80;13.40;;;5.90;99.90;;;;;;5053249;28;20773;-69
2022/04/01 04:06:29;;;;;;;16.33;13.83;;;6.00;99.90;;;;;;5053412;28;20493;-69
2022/04/01 04:08:57;;;;;;;14.83;13.23;;;6.00;99.90;;;;;;5053569;28;20413;-69
2022/04/01 04:11:28;;;;;;;14.70;13.10;;;6.00;99.90;;;;;;5053384;28;20524;-69
2022/04/01 04:13:58;;;;;;;15.37;13.67;;;6.00;99.90;;;;;;5052829;28;20908;-69
2022/04/01 04:16:32;;;;;;;17.23;13.67;;;6.00;99.90;;;;;;5053179;28;20437;-68
2022/04/01 04:19:03;;;;;;;15.80;14.10;;;6.00;99.90;;;;;;5053093;28;20385;-69
2022/04/01 04:21:31;;;;;;;16.07;14.37;;;6.10;99.90;;;;;;5053232;28;20449;-69
2022/04/01 04:24:00;;;;;;;18.00;14.63;;;6.10;99.90;;;;;;5052905;28;20457;-69
2022/04/01 04:26:28;;;;;;;16.90;14.67;;;6.10;99.90;;;;;;5053341;28;20412;-69
2022/04/01 04:29:00;;;;;;;18.87;14.07;;;6.00;99.90;;;;;;5051266;28;20811;-69
2022/04/01 04:31:33;;;;;;;18.30;15.50;;;6.00;99.90;;;;;;5054710;23;20477;-68
2022/04/01 04:34:02;;;;;;;15.60;13.60;;;6.00;99.90;;;;;;5024684;28;20780;-69
2022/04/01 04:36:36;;;;;;;17.00;15.10;;;6.00;99.90;;;;;;5014850;28;20398;-68
2022/04/01 04:39:05;;;;;;;16.50;14.73;;;6.10;99.90;;;;;;5015337;28;20433;-68
2022/04/01 04:41:32;;;;;;;15.17;13.33;;;6.00;99.90;;;;;;4998575;28;20490;-67
2022/04/01 04:43:59;;;;;;;14.20;11.90;;;5.90;99.90;;;;;;5018719;28;20421;-67
2022/04/01 04:46:27;;;;;;;16.80;12.70;;;5.80;99.90;;;;;;5002339;28;20417;-68
2022/04/01 04:48:54;;;;;;;13.00;11.07;;;5.70;99.90;;;;;;5002486;28;20449;-68
2022/04/01 04:51:25;;;;;;;15.53;13.47;;;5.70;99.90;;;;;;5018658;28;20444;-68
2022/04/01 04:53:51;;;;;;;11.80;10.60;;;5.70;99.90;;;;;;5018765;28;20442;-68
2022/04/01 04:56:21;;;;;;;12.70;10.87;;;5.60;99.90;;;;;;5018601;28;20420;-68
2022/04/01 04:58:47;;;;;;;13.80;11.90;;;5.80;99.90;;;;;;5018414;28;20418;-68
2022/04/01 05:01:29;;;;;;;14.07;11.47;;;5.80;99.90;;;;;;5009298;28;21018;-68
2022/04/01 05:04:39;;;;;;;15.27;12.63;;;5.60;99.90;;;;;;4999084;28;20402;-68
2022/04/01 05:07:19;;;;;;;13.50;11.90;;;5.70;99.90;;;;;;4998875;28;20394;-67
2022/04/01 05:09:59;;;;;;;15.00;12.77;;;5.90;99.90;;;;;;4998517;28;20406;-68
2022/04/01 05:13:03;;;;;;;13.03;11.77;;;5.90;99.90;;;;;;4998485;28;20967;-68
2022/04/01 05:15:36;;;;;;;12.23;10.70;;;5.80;99.90;;;;;;4998158;28;20394;-67
2022/04/01 05:18:12;;;;;;;10.00;9.00;;;5.70;99.90;;;;;;4982774;28;20411;-67
2022/04/01 05:20:55;;;;;;;10.70;9.67;;;5.80;99.90;;;;;;4998266;28;20477;-67
2022/04/01 05:23:29;;;;;;;13.90;11.10;;;5.80;99.90;;;;;;4998746;28;20966;-68
2022/04/01 05:25:57;;;;;;;13.80;12.30;;;5.80;99.90;;;;;;4998512;28;20935;-68
2022/04/01 05:28:25;;;;;;;13.33;11.90;;;5.80;99.90;;;;;;5015253;28;20849;-68
2022/04/01 05:31:23;;;;;;;15.40;13.10;;;5.70;99.90;;;;;;5015919;28;20958;-68
2022/04/01 05:34:03;;;;;;;13.43;11.50;;;5.40;99.90;;;;;;4992825;28;20434;-67
2022/04/01 05:36:30;;;;;;;16.70;13.23;;;5.50;99.90;;;;;;4998748;28;20413;-67
2022/04/01 05:38:57;;;;;;;14.07;12.20;;;5.60;99.90;;;;;;4998239;28;20424;-67
2022/04/01 05:41:23;;;;;;;15.00;12.30;;;5.60;99.90;;;;;;4998611;28;20996;-68
2022/04/01 05:43:50;;;;;;;15.40;12.77;;;5.50;99.90;;;;;;4981741;28;20408;-67
2022/04/01 05:46:17;;;;;;;16.03;12.60;;;5.50;99.90;;;;;;4998278;28;20411;-67
2022/04/01 05:48:43;;;;;;;15.00;12.93;;;5.60;99.90;;;;;;4982013;28;20478;-67
2022/04/01 05:51:15;;;;;;;14.50;11.87;;;5.50;99.90;;;;;;4981995;28;20944;-67
2022/04/01 05:53:45;;;;;;;13.17;11.23;;;5.30;99.90;;;;;;4997696;28;20781;-69
2022/04/01 05:56:11;;;;;;;17.80;13.63;;;5.20;99.90;;;;;;5016171;28;20399;-68
2022/04/01 05:58:38;;;;;;;14.83;12.73;;;5.20;99.90;;;;;;5015646;28;20915;-68
2022/04/01 06:01:18;;;;;;;12.53;10.90;;;5.30;99.90;;;;;;4998740;28;20881;-68
2022/04/01 06:04:20;;;;;;;11.80;10.20;;;5.40;99.90;;;;;;4981953;28;20409;-69
2022/04/01 06:06:48;;;;;;;16.40;12.93;;;5.20;99.90;;;;;;4984131;28;20404;-67
2022/04/01 06:09:36;;;;;;;16.60;13.50;;;5.20;99.90;;;;;;4997686;28;20527;-68
2022/04/01 06:12:26;;;;;;;14.17;12.67;;;5.10;99.90;;;;;;4997473;28;20427;-68
2022/04/01 06:14:57;;;;;;;18.00;13.50;;;5.20;99.90;;;;;;4997166;28;20412;-68
2022/04/01 06:17:36;;;;;;;15.43;13.40;;;5.20;99.90;;;;;;4982385;28;20407;-69
2022/04/01 06:20:07;;;;;;;15.50;13.30;;;5.30;99.90;;;;;;4997542;28;20447;-68
2022/04/01 06:22:41;;;;;;;14.83;12.77;;;5.20;99.90;;;;;;5015381;28;20391;-69
2022/04/01 06:25:13;;;;;;;16.07;13.13;;;5.10;99.90;;;;;;4997813;28;20382;-68
2022/04/01 06:27:48;;;;;;;13.30;11.90;;;5.10;99.90;;;;;;4998589;28;20526;-69
2022/04/01 06:30:17;;;;;;;12.43;11.13;;;5.10;99.90;;;;;;5013918;28;20422;-68
2022/04/01 06:32:55;;;;;;;14.37;12.87;;;5.10;99.90;;;;;;4997539;28;20474;-69
2022/04/01 06:35:28;;;;;;;14.83;12.63;;;5.00;99.90;;;;;;5014943;28;20506;-68
2022/04/01 06:38:03;;;;;;;13.93;11.77;;;5.00;99.90;;;;;;5015664;28;20391;-68
2022/04/01 06:41:05;;;;;;;14.43;12.67;;;5.20;99.90;;;;;;4997466;28;20982;-69
2022/04/01 06:43:31;;;;;;;18.27;14.57;;;5.10;99.90;;;;;;4993292;28;20478;-69
2022/04/01 06:45:56;;;;;;;14.30;12.77;;;5.00;99.90;;;;;;4980950;28;20454;-68
2022/04/01 06:48:22;;;;;;;17.60;15.37;;;5.20;99.90;;;;;;4996933;28;20168;-69
2022/04/01 06:50:51;;;;;;;17.53;15.67;;;5.40;99.90;;;;;;5014493;28;20291;-68
2022/04/01 06:53:17;;;;;;;17.50;14.80;;;5.30;99.90;;;;;;4997667;28;20168;-69
2022/04/01 06:55:44;;;;;;;15.97;13.23;;;5.30;99.90;;;;;;4997505;28;20494;-67
2022/04/01 06:58:11;;;;;;;15.80;14.20;;;5.40;99.90;;;;;;5014292;28;20407;-68
2022/04/01 07:00:38;;;;;;;15.73;14.00;;;5.30;99.90;;;;;;4996429;28;20454;-68
2022/04/01 07:03:04;;;;;;;16.67;13.90;;;5.20;99.90;;;;;;4996607;28;20411;-67
2022/04/01 07:05:29;;;;;;;15.23;13.60;;;5.20;99.90;;;;;;5013482;28;20407;-67
2022/04/01 07:07:56;;;;;;;16.30;13.73;;;5.20;99.90;;;;;;5013463;28;20430;-68
2022/04/01 07:10:22;;;;;;;16.57;14.43;;;5.40;99.90;;;;;;5014626;28;20195;-68
2022/04/01 07:12:49;;;;;;;15.70;14.00;;;5.40;99.90;;;;;;4996630;28;20774;-69
2022/04/01 07:15:14;;;;;;;19.93;15.90;;;5.30;99.90;;;;;;4980820;28;20642;-68
2022/04/01 07:17:40;;;;;;;18.03;15.33;;;5.30;99.90;;;;;;4996935;28;20438;-68
2022/04/01 07:20:06;;;;;;;15.07;13.53;;;5.20;99.90;;;;;;4992153;28;20206;-67
2022/04/01 07:22:32;;;;;;;17.27;14.87;;;5.40;99.90;;;;;;4991206;28;20586;-67
2022/04/01 07:24:57;;;;;;;17.33;15.00;;;5.60;99.90;;;;;;5001574;28;20411;-67
2022/04/01 07:27:23;;;;;;;16.63;13.97;;;5.60;99.90;;;;;;4999346;28;20186;-67
2022/04/01 07:29:49;;;;;;;17.80;15.00;;;5.50;99.90;;;;;;4987381;28;20192;-67
2022/04/01 07:32:30;;;;;;;14.90;13.07;;;5.40;99.90;;;;;;5017618;28;20199;-68
2022/04/01 07:34:56;;;;;;;14.33;12.80;;;5.40;99.90;;;;;;5017760;28;20162;-68
2022/04/01 07:37:24;;;;;;;14.70;13.10;;;5.30;99.90;;;;;;5015404;28;20407;-68
2022/04/01 07:39:54;;;;;;;16.60;14.27;;;5.30;99.90;;;;;;4996209;28;20745;-69
2022/04/01 07:42:21;;;;;;;18.70;15.50;;;5.30;99.90;;;;;;5013837;28;20517;-68
2022/04/01 07:44:48;;;;;;;15.20;13.60;;;5.10;99.90;;;;;;4995537;28;20525;-69
2022/04/01 07:47:14;;;;;;;17.73;15.47;;;5.00;99.90;;;;;;4996055;28;20766;-68
2022/04/01 07:49:43;;;;;;;15.90;13.60;;;5.00;99.90;;;;;;4979692;28;20455;-67
2022/04/01 07:52:10;;;;;;;16.60;14.80;;;4.90;99.90;;;;;;4996185;28;20427;-68
2022/04/01 07:54:40;;;;;;;18.63;16.60;;;4.90;99.90;;;;;;4995810;28;20916;-67
2022/04/01 07:57:07;;;;;;;18.60;16.40;;;4.80;99.90;;;;;;4995750;28;20428;-67
2022/04/01 07:59:34;;;;;;;15.43;13.87;;;4.90;99.90;;;;;;5000303;28;20787;-68
2022/04/01 08:02:01;;;;;;;15.70;13.77;;;5.00;99.90;;;;;;4960146;28;20506;-68
2022/04/01 08:04:27;;;;;;;16.80;14.60;;;5.00;99.90;;;;;;4977010;28;20520;-67
2022/04/01 08:06:53;;;;;;;18.73;15.83;;;5.00;99.90;;;;;;4993639;28;20436;-69
2022/04/01 08:09:19;;;;;;;17.77;15.80;;;5.20;99.90;;;;;;4960092;28;20419;-68
2022/04/01 08:11:45;;;;;;;17.50;15.60;;;5.20;99.90;;;;;;4975841;28;20439;-67
2022/04/01 08:14:10;;;;;;;17.23;15.20;;;5.20;99.90;;;;;;4993109;28;20180;-68
2022/04/01 08:16:36;;;;;;;16.97;15.07;;;5.30;99.90;;;;;;4976025;28;20173;-69
2022/04/01 08:19:03;;;;;;;15.43;13.87;;;5.20;99.90;;;;;;4976198;28;20173;-69
2022/04/01 08:21:30;;;;;;;16.33;14.30;;;5.00;99.90;;;;;;4976116;28;20291;-68
2022/04/01 08:23:57;;;;;;;16.50;14.63;;;5.10;99.90;;;;;;4976663;28;20420;-68
2022/04/01 08:26:24;;;;;;;17.17;15.37;;;5.10;99.90;;;;;;4975905;28;20415;-69
2022/04/01 08:28:50;;;;;;;18.73;16.43;;;5.10;99.90;;;;;;4982489;28;20496;-67
2022/04/01 08:31:16;;;;;;;20.77;16.87;;;5.10;99.90;;;;;;4979018;28;20462;-68
2022/04/01 08:33:42;;;;;;;17.50;15.43;;;5.10;99.90;;;;;;5013568;28;20743;-69
2022/04/01 08:36:08;;;;;;;16.73;15.00;;;5.20;99.90;;;;;;4995333;28;20462;-69
2022/04/01 08:38:34;;;;;;;16.83;13.77;;;5.00;99.90;;;;;;4979213;28;20450;-68
2022/04/01 08:41:00;;;;;;;16.03;14.10;;;5.00;99.90;;;;;;4995683;28;20208;-68
2022/04/01 08:43:37;;;;;;;18.67;16.67;;;5.00;99.90;;;;;;4995203;28;20473;-68
2022/04/01 08:46:06;;;;;;;15.17;13.57;;;5.00;99.90;;;;;;4995935;28;20861;-67
2022/04/01 08:48:33;;;;;;;14.77;13.10;;;4.90;99.90;;;;;;5013313;28;20411;-67
2022/04/01 08:50:59;;;;;;;17.13;15.37;;;4.90;99.90;;;;;;4994609;28;20430;-68
2022/04/01 08:53:25;;;;;;;15.67;13.77;;;4.80;99.90;;;;;;5012104;28;20927;-68
2022/04/01 08:55:54;;;;;;;15.43;13.83;;;4.70;99.90;;;;;;4980105;28;20494;-69
2022/04/01 08:58:20;;;;;;;15.03;13.50;;;4.70;99.90;;;;;;4995256;28;20238;-68
2022/04/01 09:00:51;;;;;;;15.10;13.47;;;4.70;99.90;;;;;;4995357;28;20458;-67
2022/04/01 09:03:19;;;;;;;16.40;14.60;;;4.80;99.90;;;;;;4995343;28;20434;-69
2022/04/01 09:05:50;;;;;;;15.80;13.90;;;4.90;99.90;;;;;;4994362;28;20432;-69
2022/04/01 09:08:30;;;;;;;16.80;15.10;;;4.90;99.90;;;;;;4979582;28;20892;-68
2022/04/01 09:10:58;;;;;;;13.00;11.63;;;5.00;99.90;;;;;;4979365;28;20943;-66
2022/04/01 09:13:30;;;;;;;13.73;12.30;;;5.10;99.90;;;;;;4995006;28;20499;-67
2022/04/01 09:15:56;;;;;;;14.30;11.50;;;5.20;99.90;;;;;;4995262;28;20399;-69
2022/04/01 09:18:42;;;;;;;13.37;11.97;;;5.00;99.90;;;;;;4995135;28;20920;-68
2022/04/01 09:21:13;;;;;;;13.20;11.80;;;4.80;99.90;;;;;;5011773;28;20490;-67
2022/04/01 09:23:44;;;;;;;12.77;11.57;;;4.70;99.90;;;;;;5012729;28;20421;-68
2022/04/01 09:26:10;;;;;;;13.30;11.10;;;4.80;99.90;;;;;;4995164;28;20400;-68
2022/04/01 09:28:41;;;;;;;13.50;12.13;;;4.90;99.90;;;;;;4991831;28;20427;-67
2022/04/01 09:31:14;;;;;;;13.63;12.30;;;4.90;99.90;;;;;;4997172;28;20204;-68
2022/04/01 09:33:43;;;;;;;13.10;11.70;;;4.80;99.90;;;;;;4997560;28;20417;-67
2022/04/01 09:36:14;;;;;;;13.27;11.87;;;4.70;99.90;;;;;;4996956;28;20400;-67
2022/04/01 09:38:53;;;;;;;13.53;12.17;;;4.70;99.90;;;;;;4997055;28;20388;-69
2022/04/01 09:41:19;;;;;;;13.43;12.10;;;4.70;99.90;;;;;;4997076;28;20451;-69
2022/04/01 09:43:45;;;;;;;13.53;11.10;;;4.70;99.90;;;;;;4996234;28;20427;-67
2022/04/01 09:46:26;;;;;;;13.67;12.07;;;4.70;99.90;;;;;;4996860;28;20414;-69
2022/04/01 09:48:58;;;;;;;14.00;12.33;;;4.70;99.90;;;;;;4997235;28;20462;-67
2022/04/01 09:51:28;;;;;;;13.93;12.53;;;4.80;99.90;;;;;;4997206;28;20518;-67
2022/04/01 09:53:54;;;;;;;13.13;11.63;;;5.00;99.90;;;;;;4996793;28;20404;-67
2022/04/01 09:56:44;;;;;;;13.07;11.87;;;4.90;99.90;;;;;;4997184;28;20820;-68
2022/04/01 09:59:12;;;;;;;12.00;9.90;;;4.80;99.90;;;;;;5004627;28;20403;-68
2022/04/01 10:01:39;;;;;;;11.50;10.30;;;4.80;99.90;;;;;;5015807;28;20461;-67
2022/04/01 10:04:04;;;;;;;10.77;9.77;;;4.80;99.90;;;;;;5015987;28;20441;-68
2022/04/01 10:06:32;;;;;;;13.40;10.73;;;4.80;99.90;;;;;;5016279;28;20422;-67
2022/04/01 10:09:04;;;;;;;10.17;9.10;;;4.60;99.90;;;;;;5015824;28;20406;-68
2022/04/01 10:11:31;;;;;;;11.03;9.60;;;4.60;99.90;;;;;;5015991;28;20427;-68
2022/04/01 10:14:03;;;;;;;9.57;8.60;;;4.40;99.90;;;;;;5015051;28;20446;-69
2022/04/01 10:16:33;;;;;;;9.33;8.43;;;4.50;99.90;;;;;;5016153;28;20484;-68
2022/04/01 10:19:06;;;;;;;11.30;10.07;;;4.60;99.90;;;;;;5020234;28;20473;-68
2022/04/01 10:21:32;;;;;;;9.63;8.73;;;4.90;99.90;;;;;;5015252;28;20866;-68
2022/04/01 10:24:14;;;;;;;9.07;7.70;;;4.70;99.90;;;;;;5015306;28;20488;-68
2022/04/01 10:26:52;;;;;;;8.47;7.63;;;4.70;99.90;;;;;;5015399;28;20375;-67
2022/04/01 10:29:18;;;;;;;7.70;6.90;;;4.60;99.90;;;;;;5014051;28;20415;-68
2022/04/01 10:32:15;;;;;;;8.80;7.97;;;4.70;99.90;;;;;;5016260;28;20451;-68
2022/04/01 10:34:47;;;;;;;8.40;7.50;;;4.80;99.90;;;;;;5014723;28;20423;-69
2022/04/01 10:37:15;;;;;;;9.00;7.40;;;4.80;99.90;;;;;;5014948;28;20407;-69
2022/04/01 10:39:54;;;;;;;8.50;7.70;;;4.80;99.90;;;;;;5013888;28;20395;-67
2022/04/01 10:42:42;;;;;;;7.13;6.47;;;4.80;99.90;;;;;;5015001;28;20422;-69
2022/04/01 10:45:22;;;;;;;6.17;5.67;;;4.70;99.90;;;;;;5014511;28;20769;-69
2022/04/01 10:53:45;;;;;;;6.27;5.67;;;4.80;99.90;;;;;;5014776;28;20374;-68
2022/04/01 10:56:25;;;;;;;6.07;5.47;;;5.10;99.90;;;;;;5014761;28;20437;-68
2022/04/01 10:59:05;;;;;;;5.00;4.60;;;5.20;99.90;;;;;;5014020;28;20502;-68
2022/04/01 11:01:32;;;;;;;4.70;4.30;;;4.90;99.90;;;;;;5014458;28;20982;-68
2022/04/01 11:04:10;;;;;;;7.30;5.90;;;4.80;99.90;;;;;;5014531;28;20436;-67
2022/04/01 11:06:52;;;;;;;4.77;4.37;;;4.80;99.90;;;;;;5014298;28;20453;-69
2022/04/01 11:09:40;;;;;;;4.70;4.17;;;4.70;99.90;;;;;;4996871;28;20748;-68
2022/04/01 11:12:14;;;;;;;5.10;4.60;;;4.70;99.90;;;;;;4994696;28;20439;-68
2022/04/01 11:17:44;;;;;;;5.10;4.70;;;4.80;99.90;;;;;;4994776;28;20384;-69
2022/04/01 11:20:19;;;;;;;4.90;4.53;;;4.90;99.90;;;;;;4994716;28;20771;-68
2022/04/01 11:22:54;;;;;;;4.83;4.47;;;5.00;99.90;;;;;;4994908;28;20404;-69
2022/04/01 11:25:27;;;;;;;5.27;4.87;;;5.00;99.90;;;;;;4994727;28;20399;-67
2022/04/01 11:28:10;;;;;;;5.20;4.70;;;4.50;99.90;;;;;;5013155;28;20451;-69
2022/04/01 11:31:03;;;;;;;5.77;5.27;;;4.60;99.90;;;;;;5013394;28;20442;-69
2022/04/01 11:33:29;;;;;;;5.47;5.07;;;4.60;99.90;;;;;;5012808;28;20892;-69
2022/04/01 11:35:57;;;;;;;6.00;5.50;;;4.40;99.90;;;;;;5014410;28;20410;-70
2022/04/01 11:38:25;;;;;;;5.13;4.73;;;4.20;99.90;;;;;;5014865;28;20175;-70
2022/04/01 11:40:56;;;;;;;6.13;5.70;;;4.10;99.90;;;;;;5014047;28;20826;-69
2022/04/01 11:43:24;;;;;;;5.67;5.17;;;4.10;99.90;;;;;;5014054;28;20853;-69
2022/04/01 11:45:54;;;;;;;5.83;5.33;;;4.20;99.90;;;;;;5013884;28;20418;-69
2022/04/01 11:48:22;;;;;;;5.60;5.17;;;4.40;99.90;;;;;;5013523;28;20407;-69
2022/04/01 11:50:54;;;;;;;5.60;5.20;;;4.70;99.90;;;;;;5012925;28;20429;-69
2022/04/01 11:53:22;;;;;;;5.40;5.00;;;4.70;99.90;;;;;;5013235;28;20403;-69
2022/04/01 11:55:47;;;;;;;5.20;4.80;;;4.80;99.90;;;;;;5013522;28;20411;-69
2022/04/01 11:58:13;;;;;;;6.20;5.70;;;4.90;99.90;;;;;;5012749;28;20425;-69
2022/04/01 12:00:39;;;;;;;5.40;5.00;;;4.80;99.90;;;;;;5012999;28;20202;-70
2022/04/01 12:03:07;;;;;;;5.97;5.33;;;4.70;99.90;;;;;;5012874;28;20172;-69
2022/04/01 12:05:33;;;;;;;5.50;5.00;;;4.70;99.90;;;;;;5013188;28;20170;-69
2022/04/01 12:10:52;;;;;;;6.03;5.43;;;4.50;99.90;;;;;;5012952;28;20484;-68
2022/04/01 12:13:19;;;;;;;6.23;5.73;;;4.50;99.90;;;;;;5013526;28;20403;-69
2022/04/01 12:15:47;;;;;;;5.63;5.13;;;4.30;99.90;;;;;;5012209;28;20473;-69
2022/04/01 12:18:32;;;;;;;7.00;6.37;;;4.30;99.90;;;;;;5013581;28;20443;-68
2022/04/01 12:21:00;;;;;;;6.47;5.87;;;4.60;99.90;;;;;;5013476;28;20533;-68
2022/04/01 12:23:30;;;;;;;6.13;5.63;;;4.60;99.90;;;;;;5011945;28;20423;-68
2022/04/01 12:25:56;;;;;;;7.20;6.50;;;4.70;99.90;;;;;;5013297;28;20384;-70
2022/04/01 12:28:40;;;;;;;7.70;7.00;;;4.40;99.90;;;;;;5011757;28;20445;-69
2022/04/01 12:31:22;;;;;;;8.03;7.33;;;4.40;99.90;;;;;;5013240;28;20467;-68
2022/04/01 12:33:54;;;;;;;8.73;7.97;;;4.50;99.90;;;;;;5012959;28;20391;-68
2022/04/01 12:36:35;;;;;;;8.23;7.47;;;4.50;99.90;;;;;;5013486;28;20478;-69
2022/04/01 12:39:12;;;;;;;8.63;7.83;;;4.40;99.90;;;;;;5013106;28;20390;-69
2022/04/01 12:41:58;;;;;;;8.90;8.20;;;4.60;99.90;;;;;;5013069;28;20489;-69
2022/04/01 12:44:30;;;;;;;8.00;7.20;;;4.60;99.90;;;;;;5012686;28;20387;-68
2022/04/01 12:46:58;;;;;;;9.37;8.50;;;4.50;99.90;;;;;;5013413;28;20791;-69
2022/04/01 12:49:25;;;;;;;8.33;7.53;;;4.60;99.90;;;;;;5013350;28;20434;-68
2022/04/01 12:52:19;;;;;;;8.33;7.53;;;4.50;99.90;;;;;;5013001;28;20441;-68
2022/04/01 12:54:50;;;;;;;8.20;7.50;;;4.20;99.90;;;;;;5010226;28;20419;-68
2022/04/01 12:57:18;;;;;;;8.80;8.00;;;4.30;99.90;;;;;;5012822;28;20481;-68
2022/04/01 12:59:45;;;;;;;8.53;7.73;;;4.30;99.90;;;;;;5012358;28;20499;-67
2022/04/01 13:02:17;;;;;;;9.40;8.60;;;4.10;99.90;;;;;;5012385;28;20474;-67
2022/04/01 13:04:51;;;;;;;8.70;7.90;;;4.20;99.90;;;;;;5016305;28;20773;-66
2022/04/01 13:07:28;;;;;;;9.70;8.87;;;4.40;99.90;;;;;;5016221;28;20434;-67
2022/04/01 13:09:56;;;;;;;9.43;8.53;;;4.30;99.90;;;;;;5021337;28;20423;-68
2022/04/01 13:12:32;;;;;;;9.43;8.53;;;4.20;99.90;;;;;;5028239;28;21048;-67